Flight Track Log - Related Links

Times and Time Zones

All times are in EST time to prevent confusion due to time zone crossing. See the N700QA flight status page for this flight to view local times or setup timezone preferences in your user account.

Time Position Orientation Groundspeed Altitude Reporting Facility
EST Latitude Longitude Course Direction KTS MPH feet Rate Location/Type
Tue 08:02:54 PM 29.5244 -98.4614 131° Southeast 141 162 1,500  Level Houston Center
Tue 08:03:25 PM 29.5078 -98.4392 131° Southeast 169 194 2,600 2,108 Climbing Houston Center
Tue 08:04:08 PM 29.4808 -98.4100 137° Southeast 199 229 4,100 2,300 Climbing Houston Center
Tue 08:04:25 PM 29.4631 -98.4086 176° South 218 251 4,900 2,613 Climbing Houston Center
Tue 08:05:10 PM 29.4350 -98.4403 225° Southwest 210 242 6,800 2,411 Climbing Houston Center
Tue 08:06:12 PM 29.4642 -98.5128 295° West 253 291 9,200 2,341 Climbing Houston Center
Tue 08:07:13 PM 29.5236 -98.5569 327° Northwest 251 289 11,600 1,951 Climbing Houston Center
Tue 08:08:15 PM 29.5922 -98.6017 330° Northwest 281 323 13,200 1,694 Climbing Houston Center
Tue 08:09:17 PM 29.6694 -98.6547 329° Northwest 298 343 15,100 1,839 Climbing Houston Center
Tue 08:10:19 PM 29.7431 -98.7050 329° Northwest 306 352 17,000 1,742 Climbing Houston Center
Tue 08:11:21 PM 29.8144 -98.7528 330° Northwest 298 343 18,700 1,463 Climbing Houston Center
Tue 08:12:22 PM 29.8944 -98.8119 327° Northwest 315 362 20,000 1,463 Climbing Houston Center
Tue 08:13:24 PM 29.9458 -98.8872 308° West 296 341 21,700 1,355 Climbing Houston Center
Tue 08:14:26 PM 30.0000 -98.9642 309° West 306 352 22,800 1,210 Climbing Houston Center
Tue 08:15:28 PM 30.0583 -99.0475 309° West 309 356 24,200 1,016 Climbing Houston Center
Tue 08:16:30 PM 30.1097 -99.1214 309° West 313 360 24,900 780 Climbing Houston Center
Tue 08:17:31 PM 30.1667 -99.2022 309° West 324 373 25,800 878 Climbing Houston Center
Tue 08:18:33 PM 30.2067 -99.2908 298° West 313 360 26,700 871 Climbing Houston Center
Tue 08:19:35 PM 30.2364 -99.3878 290° West 321 369 27,600 871 Climbing Houston Center
Tue 08:20:37 PM 30.2650 -99.5006 286° West 309 356 28,500 823 Climbing Houston Center
Tue 08:21:39 PM 30.2883 -99.5981 286° West 313 360 29,300 634 Climbing Houston Center
Tue 08:22:40 PM 30.3144 -99.6953 287° West 319 367 29,800 488 Climbing Houston Center
Tue 08:23:42 PM 30.3403 -99.7942 287° West 322 371 30,300 532 Climbing Houston Center
Tue 08:24:44 PM 30.3650 -99.8950 286° West 327 376 30,900 581 Climbing Houston Center
Tue 08:25:46 PM 30.3919 -99.9958 287° West 330 380 31,500 581 Climbing Houston Center
Tue 08:26:48 PM 30.4222 -100.1169 286° West 330 380 32,100 634 Climbing Houston Center
Tue 08:27:49 PM 30.4475 -100.2181 286° West 331 381 32,800 634 Climbing Houston Center
Tue 08:28:51 PM 30.4731 -100.3169 287° West 324 373 33,400 532 Climbing Houston Center
Tue 08:29:53 PM 30.4983 -100.4156 287° West 322 371 33,900 290 Climbing Houston Center
Tue 08:30:55 PM 30.5228 -100.5156 286° West 325 374 34,000 97 Climbing Houston Center
Tue 08:31:57 PM 30.5481 -100.6192 286° West 336 387 34,100 49 Climbing Houston Center
Tue 08:32:58 PM 30.5803 -100.7456 287° West 343 395 34,100  Level Houston Center
Tue 08:34:00 PM 30.6069 -100.8539 286° West 350 403 34,100  Level Houston Center
Tue 08:35:02 PM 30.6333 -100.9631 286° West 353 406 34,100 -49 Level Houston Center
Tue 08:36:03 PM 30.6603 -101.0747 286° West 360 414 34,000 -49 Descending Houston Center
Tue 08:37:05 PM 30.6881 -101.1883 286° West 365 420 34,000  Level Houston Center
Tue 08:38:07 PM 30.7150 -101.3003 286° West 364 419 34,000  Level Houston Center
Tue 08:39:08 PM 30.7483 -101.4358 286° West 363 418 34,000  Level Houston Center
Tue 08:40:10 PM 30.7750 -101.5483 285° West 364 419 34,000 49 Level Houston Center
Tue 08:41:11 PM 30.8031 -101.6614 286° West 364 419 34,100 49 Climbing Houston Center
Tue 08:42:13 PM 30.8303 -101.7756 286° West 365 420 34,100  Level Houston Center
Tue 08:43:15 PM 30.8575 -101.8883 286° West 364 419 34,100 -49 Level Houston Center
Tue 08:44:16 PM 30.8839 -102.0008 285° West 362 417 34,000 -49 Descending Houston Center
Tue 08:45:18 PM 30.9100 -102.1133 285° West 359 413 34,000  Level Houston Center
Tue 08:46:20 PM 30.9364 -102.2247 285° West 357 411 34,000  Level Houston Center
Tue 08:47:21 PM 30.9631 -102.3353 286° West 354 407 34,000  Level Houston Center
Tue 08:48:19 PM 30.9872 -102.4444 285° West 349 402 34,000  Level Albuquerque Center
Tue 08:49:20 PM 31.0111 -102.5544 284° West 348 400 34,000  Level Albuquerque Center
Tue 08:50:22 PM 31.0372 -102.6619 286° West 346 398 34,000  Level Albuquerque Center
Tue 08:51:23 PM 31.0614 -102.7700 285° West 345 397 34,000  Level Albuquerque Center
Tue 08:52:25 PM 31.0908 -102.8989 285° West 343 395 34,000  Level Albuquerque Center
Tue 08:53:26 PM 31.1158 -103.0069 285° West 344 396 34,000  Level Albuquerque Center
Tue 08:54:28 PM 31.1417 -103.1153 286° West 346 398 34,000  Level Albuquerque Center
Tue 08:55:29 PM 31.1653 -103.2222 284° West 343 395 34,000  Level Albuquerque Center
Tue 08:56:31 PM 31.1875 -103.3294 284° West 341 392 34,000  Level Albuquerque Center
Tue 08:57:32 PM 31.2119 -103.4361 285° West 339 390 34,000  Level Albuquerque Center
Tue 08:58:34 PM 31.2356 -103.5433 284° West 340 391 34,000  Level Albuquerque Center
Tue 08:59:35 PM 31.2578 -103.6494 284° West 338 389 34,000  Level Albuquerque Center
Tue 09:00:37 PM 31.2825 -103.7547 285° West 337 388 34,000  Level Albuquerque Center
Tue 09:01:38 PM 31.3069 -103.8678 284° West 338 389 34,000  Level Albuquerque Center
Tue 09:02:40 PM 31.3300 -103.9739 284° West 337 388 34,000  Level Albuquerque Center
Tue 09:03:41 PM 31.3533 -104.0792 285° West 336 387 34,000  Level Albuquerque Center
Tue 09:04:43 PM 31.3814 -104.2053 285° West 335 386 34,000  Level Albuquerque Center
Tue 09:05:44 PM 31.4047 -104.3114 284° West 337 388 34,000  Level Albuquerque Center
Tue 09:06:46 PM 31.4269 -104.4169 284° West 335 386 34,000  Level Albuquerque Center
Tue 09:07:47 PM 31.4511 -104.5233 285° West 338 389 34,000  Level Albuquerque Center
Tue 09:08:48 PM 31.4731 -104.6289 284° West 336 387 34,000  Level Albuquerque Center
Tue 09:09:50 PM 31.4972 -104.7358 285° West 340 391 34,000  Level Albuquerque Center
Tue 09:10:51 PM 31.5192 -104.8433 283° West 341 392 34,000  Level Albuquerque Center
Tue 09:11:53 PM 31.5464 -104.9717 284° West 340 391 34,000  Level Albuquerque Center
Tue 09:12:54 PM 31.5692 -105.0786 284° West 340 391 34,000  Level Albuquerque Center
Tue 09:13:56 PM 31.5922 -105.1858 284° West 340 391 34,000  Level Albuquerque Center
Tue 09:14:57 PM 31.6144 -105.2944 284° West 342 394 34,000  Level Albuquerque Center
Tue 09:15:59 PM 31.6358 -105.4042 283° West 346 398 34,000  Level Albuquerque Center
Tue 09:17:00 PM 31.6575 -105.5108 283° West 339 390 34,000  Level Albuquerque Center
Tue 09:18:02 PM 31.6803 -105.6192 284° West 342 394 34,000  Level Albuquerque Center
Tue 09:19:03 PM 31.7064 -105.7497 283° West 344 396 34,000  Level Albuquerque Center
Tue 09:20:05 PM 31.7289 -105.8600 284° West 348 400 34,000  Level Albuquerque Center
Tue 09:21:06 PM 31.7517 -105.9722 283° West 354 407 34,000  Level Albuquerque Center
Tue 09:22:07 PM 31.7742 -106.0844 283° West 355 409 34,000  Level Albuquerque Center
Tue 09:23:09 PM 31.7975 -106.1986 284° West 359 413 34,000  Level Albuquerque Center
Tue 09:24:10 PM 31.8217 -106.3133 284° West 362 417 34,000  Level Albuquerque Center
Tue 09:25:12 PM 31.8278 -106.4286 274° West 356 410 34,000  Level Albuquerque Center
Tue 09:26:13 PM 31.8369 -106.5678 274° West 359 413 34,000 49 Level Albuquerque Center
Tue 09:27:15 PM 31.8539 -106.6656 282° West 367 422 34,100 49 Climbing Albuquerque Center
Tue 09:28:16 PM 31.8953 -106.8033 290° West 373 429 34,100  Level Albuquerque Center
Tue 09:29:18 PM 31.9283 -106.9183 289° West 371 427 34,100  Level Albuquerque Center
Tue 09:30:19 PM 31.9600 -107.0333 288° West 370 426 34,100 -49 Level Albuquerque Center
Tue 09:31:21 PM 31.9928 -107.1483 289° West 368 423 34,000 -49 Descending Albuquerque Center
Tue 09:32:22 PM 32.0250 -107.2639 288° West 369 425 34,000  Level Albuquerque Center
Tue 09:33:24 PM 32.0569 -107.3800 288° West 370 426 34,000 49 Level Albuquerque Center
Tue 09:34:25 PM 32.0897 -107.4969 288° West 371 427 34,100  Climbing Albuquerque Center
Tue 09:35:27 PM 32.1236 -107.6142 289° West 376 433 34,000  Descending Albuquerque Center
Tue 09:36:28 PM 32.1558 -107.7314 288° West 374 430 34,100 49 Climbing Albuquerque Center
Tue 09:37:30 PM 32.1881 -107.8469 288° West 372 428 34,100  Level Albuquerque Center
Tue 09:38:31 PM 32.2258 -107.9864 288° West 372 428 34,100 -49 Level Albuquerque Center
Tue 09:39:32 PM 32.2586 -108.1017 289° West 371 427 34,000  Descending Albuquerque Center
Tue 09:40:34 PM 32.2894 -108.2175 288° West 371 427 34,100  Climbing Albuquerque Center
Tue 09:41:35 PM 32.3217 -108.3339 288° West 372 428 34,000 -49 Descending Albuquerque Center
Tue 09:42:37 PM 32.3514 -108.4489 287° West 374 430 34,000 49 Level Albuquerque Center
Tue 09:43:38 PM 32.3842 -108.5658 288° West 375 432 34,100 49 Climbing Albuquerque Center
Tue 09:44:39 PM 32.4169 -108.6839 288° West 376 433 34,100 -49 Level Albuquerque Center
Tue 09:45:41 PM 32.4489 -108.8039 288° West 380 437 34,000  Descending Albuquerque Center
Tue 09:46:42 PM 32.4800 -108.9231 287° West 379 436 34,100 49 Climbing Albuquerque Center
Tue 09:47:44 PM 32.5197 -109.0681 288° West 382 440 34,100  Level Albuquerque Center
Tue 09:48:45 PM 32.5517 -109.1906 287° West 385 443 34,100  Level Albuquerque Center
Tue 09:49:46 PM 32.5833 -109.3125 287° West 386 444 34,100  Level Albuquerque Center
Tue 09:50:47 PM 32.6153 -109.4336 287° West 384 442 34,100  Level Albuquerque Center
Tue 09:51:49 PM 32.6472 -109.5553 287° West 384 442 34,100  Level Albuquerque Center
Tue 09:52:50 PM 32.6792 -109.6792 287° West 389 448 34,100 -49 Level Albuquerque Center
Tue 09:53:51 PM 32.7142 -109.8056 288° West 402 463 34,000  Descending Albuquerque Center
Tue 09:54:53 PM 32.7464 -109.9281 287° West 391 450 34,100 49 Climbing Albuquerque Center
Tue 09:55:54 PM 32.7789 -110.0511 287° West 391 450 34,100  Level Albuquerque Center
Tue 09:56:55 PM 32.8108 -110.1733 287° West 389 448 34,100  Level Albuquerque Center
Tue 09:57:56 PM 32.8419 -110.2969 287° West 389 448 34,100  Level Albuquerque Center
Tue 09:58:58 PM 32.8736 -110.4186 287° West 388 447 34,100  Level Albuquerque Center
Tue 09:59:59 PM 32.9092 -110.5656 286° West 386 444 34,100  Level Albuquerque Center
Tue 10:01:00 PM 32.9403 -110.6839 287° West 386 444 34,100  Level Albuquerque Center
Tue 10:02:01 PM 32.9703 -110.8058 286° West 385 443 34,100  Level Albuquerque Center
Tue 10:03:03 PM 33.0011 -110.9283 287° West 385 443 34,100  Level Albuquerque Center
Tue 10:04:04 PM 33.0306 -111.0511 286° West 386 444 34,100  Level Albuquerque Center
Tue 10:05:05 PM 33.0608 -111.1739 286° West 387 445 34,100  Level Albuquerque Center
Tue 10:06:06 PM 33.0906 -111.2964 286° West 384 442 34,100  Level Albuquerque Center
Tue 10:07:08 PM 33.1203 -111.4161 287° West 377 434 34,100 -49 Level Albuquerque Center
Tue 10:08:09 PM 33.1492 -111.5350 286° West 373 429 34,000  Descending Albuquerque Center
Tue 10:09:10 PM 33.1822 -111.6775 286° West 372 428 34,100  Climbing Albuquerque Center
Tue 10:10:11 PM 33.2117 -111.7944 287° West 369 425 34,000 -146 Descending Albuquerque Center
Tue 10:11:13 PM 33.2386 -111.9083 286° West 361 415 33,800 -439 Descending Albuquerque Center
Tue 10:12:14 PM 33.2650 -112.0172 286° West 349 402 33,100 -689 Descending Albuquerque Center
Tue 10:13:15 PM 33.2914 -112.1303 286° West 349 402 32,400 -639 Descending Albuquerque Center
Tue 10:14:16 PM 33.3175 -112.2458 285° West 354 407 31,800 -537 Descending Albuquerque Center
Tue 10:15:18 PM 33.3458 -112.3664 286° West 369 425 31,300 -537 Descending Albuquerque Center
Tue 10:16:19 PM 33.3750 -112.4928 285° West 390 449 30,700 -590 Descending Albuquerque Center
Tue 10:17:20 PM 33.4050 -112.6219 286° West 399 459 30,100 -295 Descending Albuquerque Center
Tue 10:18:21 PM 33.4350 -112.7533 285° West 404 465 30,100  Level Albuquerque Center
Tue 10:19:22 PM 33.4647 -112.8794 286° West 403 464 30,100 -49 Level Albuquerque Center
Tue 10:20:24 PM 33.5219 -113.0164 297° West 395 455 30,000 -49 Descending Albuquerque Center
Tue 10:21:25 PM 33.5631 -113.1342 293° West 387 445 30,000  Level Albuquerque Center
Tue 10:22:26 PM 33.6056 -113.2533 293° West 389 448 30,000  Level Albuquerque Center
Tue 10:23:27 PM 33.6492 -113.3733 294° West 386 444 30,000  Level Albuquerque Center
Tue 10:24:29 PM 33.6903 -113.4931 292° West 387 445 30,000  Level Albuquerque Center
Tue 10:25:30 PM 33.7317 -113.6139 292° West 390 449 30,000  Level Albuquerque Center
Tue 10:26:31 PM 33.7736 -113.7331 293° West 389 448 30,000  Level Albuquerque Center
Tue 10:27:32 PM 33.8131 -113.8539 291° West 389 448 30,000  Level Albuquerque Center
Tue 10:28:33 PM 33.8311 -113.9858 279° West 399 459 30,000 49 Level Albuquerque Center
Tue 10:29:35 PM 33.8503 -114.1181 280° West 401 461 30,100  Climbing Albuquerque Center
Tue 10:30:36 PM 33.8761 -114.2647 282° West 396 456 30,000 -117 Descending Albuquerque Center
Tue 10:31:18 PM 33.8911 -114.3561 281° West 381 438 29,900 -58 Descending Los Center
Tue 10:32:19 PM 33.9106 -114.4756 281° West 370 426 29,900  Level Los Center
Tue 10:33:21 PM 33.9294 -114.5972 281° West 370 426 29,900 48 Level Los Center
Tue 10:34:23 PM 33.9492 -114.7181 281° West 371 427 30,000 49 Climbing Los Center
Tue 10:35:24 PM 33.9681 -114.8436 280° West 380 437 30,000  Level Los Center
Tue 10:36:26 PM 33.9881 -114.9675 281° West 379 436 30,000  Level Los Center
Tue 10:37:28 PM 34.0081 -115.0933 281° West 382 440 30,000  Level Los Center
Tue 10:38:29 PM 34.0314 -115.2467 280° West 387 445 30,000  Level Los Center
Tue 10:39:31 PM 34.0497 -115.3731 280° West 385 443 30,000  Level Los Center
Tue 10:40:32 PM 34.0703 -115.5014 281° West 389 448 30,000  Level Los Center
Tue 10:41:34 PM 34.1089 -115.6186 292° West 384 442 30,000 -48 Level Los Center
Tue 10:42:36 PM 34.1639 -115.7203 303° West 367 422 29,900 -488 Descending Los Center
Tue 10:43:37 PM 34.2178 -115.8222 303° West 363 418 29,000 -878 Descending Los Center
Tue 10:44:39 PM 34.2461 -115.9372 287° West 371 427 28,100 -439 Descending Los Center
Tue 10:45:40 PM 34.1631 -116.0319 223° Southwest 418 481 28,100  Level Los Center
Tue 10:46:42 PM 34.0650 -116.1514 225° Southwest 421 484 28,100 -48 Level Los Center
Tue 10:47:44 PM 34.0475 -116.2767 260° West 393 452 28,000 -732 Descending Los Center
Tue 10:48:45 PM 34.0328 -116.4050 262° West 389 448 26,600 -1,610 Descending Los Center
Tue 10:49:47 PM 34.0197 -116.5278 263° West 377 434 24,700 -1,742 Descending Los Center
Tue 10:50:49 PM 34.0064 -116.6447 262° West 360 414 23,000 -1,854 Descending Los Center
Tue 10:51:50 PM 33.9914 -116.7778 262° West 340 391 20,900 -1,805 Descending Los Center
Tue 10:52:52 PM 33.9750 -116.9083 261° West 390 449 19,300 -1,548 Descending Los Center
Tue 10:53:23 PM 33.9667 -116.9833 262° West 381 438 18,500 -1,220 Descending Southern TRACON
Tue 10:54:55 PM 33.9472 -117.1578 262° West 375 432 16,800 -1,325 Descending Los Center
Tue 10:55:57 PM 33.9367 -117.2867 264° West 376 433 15,100 -1,561 Descending Los Center
Tue 10:56:58 PM 33.9372 -117.4025 270° West 353 406 13,600 -1,122 Descending Los Center
Tue 10:58:00 PM 33.9714 -117.4911 295° West 292 336 12,800 -683 Descending Los Center
Tue 10:59:01 PM 34.0083 -117.5972 293° West 294 338 12,200 -439 Descending Los Center
Tue 11:00:03 PM 34.0044 -117.7000 267° West 296 341 11,900 -581 Descending Los Center
Tue 11:01:05 PM 33.9922 -117.7994 262° West 299 344 11,000 -1,171 Descending Los Center
Tue 11:02:06 PM 33.9850 -117.8997 265° West 301 346 9,500 -1,561 Descending Los Center
Tue 11:03:08 PM 33.9747 -117.9967 263° West 296 341 7,800 -1,306 Descending Los Center
Tue 11:04:10 PM 33.9653 -118.0844 263° West 274 315 6,800 -1,073 Descending Los Center
Tue 11:05:11 PM 33.9592 -118.1569 264° West 230 265 5,600 -1,220 Descending Los Center
Tue 11:06:13 PM 33.9511 -118.2319 263° West 227 261 4,300 -1,659 Descending Los Center
Tue 11:07:14 PM 33.9436 -118.3122 264° West 214 246 2,200 -1,659 Descending Los Center
Tue 11:08:16 PM 33.9383 -118.3631 263° West 176 203 900 -968 Descending Los Center
Tue 11:09:18 PM 33.9639 -118.4044 307° West 191 220 200 -677 Descending Los Center

Login

Don't have an account? Register now (free) for customized features, flight alerts, and more!